Sankoumaru 31 — JD2200 — position and weather

sailwx.info

Track history (hours):
 
Tides and Currents Weather Stations Pressure Air Temp Water Temp Dewpoint Dewpoint Depression Visibility Wind Speed Wind Dir Waves Ship Positions

Sankoumaru 31

Last reported at 2018-Apr-22 23:35 UTC. Time now 2018-Apr-27 08:39 UTC.
Position N 41°25' E 141°35'.

Length 75 m; draft 5 m.

Type: Cargo ship. MMSI: 431501842.

Date/timePositionNaut miles runAvg speedWind from/ knotsBaromVisibWave heightAir tempDewpointWater temp
2018-Apr-22 23:35N 41°25' E 141°35'38411.4
2018-Apr-21 13:57N 35°05' E 140°20'612.4
2018-Apr-21 13:30N 35°02' E 140°14'612.2
2018-Apr-21 13:00N 34°59' E 140°08'612.0
2018-Apr-21 12:30N 34°55' E 140°02'911.9
2018-Apr-21 11:44N 34°50' E 139°53'312.3
2018-Apr-21 11:30N 34°48' E 139°50'712.4
2018-Apr-21 10:59N 34°46' E 139°43'612.1
2018-Apr-21 10:30N 34°44' E 139°36'612.1
2018-Apr-21 10:00N 34°41' E 139°30'712.7
2018-Apr-21 09:26N 34°39' E 139°22'613.0
2018-Apr-21 08:59N 34°37' E 139°15'613.2
2018-Apr-21 08:31N 34°35' E 139°07'713.3
2018-Apr-21 08:00N 34°33' E 138°60'713.7
2018-Apr-21 07:30N 34°32' E 138°52'612.9
2018-Apr-21 07:00N 34°30' E 138°44'612.7
2018-Apr-21 06:30N 34°29' E 138°37'612.6
2018-Apr-21 06:00N 34°27' E 138°29'612.0
2018-Apr-21 05:30N 34°25' E 138°22'612.2
2018-Apr-21 05:00N 34°24' E 138°15'711.7
2018-Apr-21 04:24N 34°22' E 138°07'6911.3
2018-Apr-20 22:19N 34°04' E 136°46'83 9.0
2018-Apr-20 13:08N 33°47' E 135°08'211.4
2018-Apr-20 12:57N 33°49' E 135°07'511.3
2018-Apr-20 12:30N 33°52' E 135°03'510.8
2018-Apr-20 12:00N 33°58' E 135°02'611.4
2018-Apr-20 11:30N 34°03' E 135°02'611.5
2018-Apr-20 11:00N 34°09' E 135°03'611.4
2018-Apr-20 10:30N 34°15' E 135°03'510.9
2018-Apr-20 10:00N 34°20' E 135°05'612.3
2018-Apr-20 09:30N 34°25' E 135°10'612.5
2018-Apr-20 09:00N 34°29' E 135°15'612.3
2018-Apr-20 08:30N 34°34' E 135°20'5 9.8
2018-Apr-20 08:00N 34°36' E 135°25'1 2.4
2018-Apr-20 07:30N 34°35' E 135°27'0 0.0
2018-Apr-20 06:58N 34°35' E 135°27'0 0.0
2018-Apr-20 06:28N 34°35' E 135°27'0 0.0
2018-Apr-20 05:58N 34°35' E 135°27'0 0.0
2018-Apr-20 05:28N 34°35' E 135°27'0 0.0
2018-Apr-20 04:52N 34°35' E 135°27'0 0.0
2018-Apr-20 04:28N 34°35' E 135°27'0 0.0
2018-Apr-20 03:58N 34°35' E 135°27'0 0.0
2018-Apr-20 03:28N 34°35' E 135°27'0 0.0
2018-Apr-20 02:58N 34°35' E 135°27'0 0.0
2018-Apr-20 02:28N 34°35' E 135°27'0 0.0
2018-Apr-20 01:52N 34°35' E 135°27'0 0.0
2018-Apr-20 01:28N 34°35' E 135°27'0 0.0
2018-Apr-20 00:55N 34°35' E 135°27'0 0.0
2018-Apr-20 00:25N 34°35' E 135°27'0 0.0
2018-Apr-19 23:58N 34°35' E 135°27'0 0.0
2018-Apr-19 23:28N 34°35' E 135°27'0 0.0
2018-Apr-19 22:58N 34°35' E 135°27'0 0.0
2018-Apr-19 22:28N 34°35' E 135°27'0 0.0
2018-Apr-19 22:00N 34°35' E 135°27'2 3.9
2018-Apr-19 21:31N 34°36' E 135°25'4 7.0
2018-Apr-19 21:00N 34°33' E 135°23'2 3.6
2018-Apr-19 20:28N 34°31' E 135°24'0 0.0
2018-Apr-19 19:58N 34°31' E 135°24'0 0.0
2018-Apr-19 19:28N 34°31' E 135°24'0 0.0
2018-Apr-19 18:55N 34°31' E 135°24'0 0.0
2018-Apr-19 18:25N 34°31' E 135°24'0 0.0
2018-Apr-19 17:58N 34°31' E 135°24'0 0.0
2018-Apr-19 17:28N 34°31' E 135°24'0 0.0
2018-Apr-19 16:58N 34°31' E 135°24'0 0.0
2018-Apr-19 16:28N 34°31' E 135°24'0 0.0
2018-Apr-19 15:58N 34°31' E 135°24'0 0.0
2018-Apr-19 15:28N 34°31' E 135°24'0 0.0
2018-Apr-19 14:55N 34°31' E 135°24'0 0.0
2018-Apr-19 14:28N 34°31' E 135°24'0 0.0
2018-Apr-19 13:58N 34°31' E 135°24'0 0.0
2018-Apr-19 13:28N 34°31' E 135°24'0 0.0
2018-Apr-19 12:58N 34°31' E 135°24'0 0.0
2018-Apr-19 12:28N 34°31' E 135°24'0 0.0
2018-Apr-19 11:58N 34°31' E 135°24'0 0.0
2018-Apr-19 11:28N 34°31' E 135°24'0 0.0
2018-Apr-19 10:58N 34°31' E 135°24'0 0.0
2018-Apr-19 10:25N 34°31' E 135°24'0 0.0
2018-Apr-19 09:58N 34°31' E 135°24'0 0.0
2018-Apr-19 09:28N 34°31' E 135°24'0 0.0
2018-Apr-19 08:58N 34°31' E 135°24'0 0.0
2018-Apr-19 08:28N 34°31' E 135°24'0 0.0
2018-Apr-19 07:52N 34°31' E 135°24'0 0.0
2018-Apr-19 07:28N 34°31' E 135°24'0 0.0
2018-Apr-19 06:58N 34°31' E 135°24'0 0.0
2018-Apr-19 06:25N 34°31' E 135°24'0 0.0
2018-Apr-19 05:58N 34°31' E 135°24'0 0.0
2018-Apr-19 05:28N 34°31' E 135°24'0 0.0
2018-Apr-19 04:58N 34°31' E 135°24'0 0.0
2018-Apr-19 04:19N 34°31' E 135°24'0 0.0
2018-Apr-19 03:58N 34°31' E 135°24'0 0.0
2018-Apr-19 03:28N 34°31' E 135°24'0 0.0
2018-Apr-19 02:58N 34°31' E 135°24'1 2.0
2018-Apr-19 02:30N 34°32' E 135°23'612.3
2018-Apr-19 02:00N 34°38' E 135°23'4 8.0
2018-Apr-19 01:30N 34°40' E 135°27'0 0.0
2018-Apr-19 00:57N 34°40' E 135°27'0 0.0
2018-Apr-19 00:30N 34°40' E 135°27'0 0.0
2018-Apr-18 23:57N 34°40' E 135°27'0 0.0
2018-Apr-18 23:30N 34°40' E 135°27'0 0.3
2018-Apr-18 23:00N 34°40' E 135°27'2 3.6
2018-Apr-18 22:30N 34°39' E 135°25'3 5.4
2018-Apr-18 21:58N 34°37' E 135°22'0 0.0
2018-Apr-18 21:28N 34°37' E 135°22'0 0.0
2018-Apr-18 20:58N 34°37' E 135°22'0 0.0
2018-Apr-18 20:28N 34°37' E 135°22'0 0.0
2018-Apr-18 19:58N 34°37' E 135°22'0 0.0
2018-Apr-18 19:28N 34°37' E 135°22'0 0.0
2018-Apr-18 18:58N 34°37' E 135°22'0 0.0
2018-Apr-18 18:28N 34°37' E 135°22'0 0.0
2018-Apr-18 17:58N 34°37' E 135°22'1 2.8
2018-Apr-18 17:30N 34°37' E 135°21'511.0
2018-Apr-18 17:00N 34°36' E 135°14'611.1
2018-Apr-18 16:30N 34°35' E 135°08'611.2
2018-Apr-18 16:00N 34°37' E 135°01'611.4
2018-Apr-18 15:30N 34°37' E 134°54'611.7
2018-Apr-18 15:00N 34°40' E 134°48'611.2
2018-Apr-18 14:30N 34°43' E 134°42'510.2
2018-Apr-18 14:00N 34°47' E 134°38'1 0.1
2018-Apr-18 06:03N 34°46' E 134°38'111.7
2018-Apr-18 05:57N 34°45' E 134°39'612.0
2018-Apr-18 05:29N 34°43' E 134°45'511.4
2018-Apr-18 05:00N 34°40' E 134°50'5 9.5
2018-Apr-18 04:30N 34°38' E 134°56'510.6
2018-Apr-18 04:00N 34°37' E 135°02'611.5
2018-Apr-18 03:30N 34°36' E 135°09'612.9
2018-Apr-18 03:00N 34°36' E 135°17'612.5
2018-Apr-18 02:30N 34°36' E 135°24'3 5.1
2018-Apr-18 02:00N 34°35' E 135°27'0 0.0
2018-Apr-18 01:29N 34°35' E 135°27'0 0.0
2018-Apr-18 00:59N 34°35' E 135°27'0 0.0
2018-Apr-18 00:29N 34°35' E 135°27'0 0.0
2018-Apr-17 23:59N 34°35' E 135°27'0 0.0
2018-Apr-17 23:29N 34°35' E 135°27'0 0.0
2018-Apr-17 22:59N 34°35' E 135°27'1 2.2
2018-Apr-17 22:30N 34°35' E 135°26'2 4.9
2018-Apr-17 22:00N 34°35' E 135°23'4 7.7
2018-Apr-17 21:30N 34°31' E 135°24'0 0.0
2018-Apr-17 20:59N 34°31' E 135°24'0 0.0
2018-Apr-17 20:29N 34°31' E 135°24'0 0.0
2018-Apr-17 19:59N 34°31' E 135°24'0 0.0
2018-Apr-17 19:29N 34°31' E 135°24'0 0.0
2018-Apr-17 18:59N 34°31' E 135°24'0 0.0
2018-Apr-17 18:26N 34°31' E 135°24'0 0.0
2018-Apr-17 17:56N 34°31' E 135°24'0 0.0
2018-Apr-17 17:29N 34°31' E 135°24'0 0.0
2018-Apr-17 16:59N 34°31' E 135°24'0 0.0
2018-Apr-17 16:29N 34°31' E 135°24'0 0.0
2018-Apr-17 15:56N 34°31' E 135°24'0 0.0
2018-Apr-17 15:26N 34°31' E 135°24'0 0.0
2018-Apr-17 14:59N 34°31' E 135°24'0 0.0
2018-Apr-17 14:29N 34°31' E 135°24'0 0.0
2018-Apr-17 13:59N 34°31' E 135°24'0 0.0
2018-Apr-17 13:29N 34°31' E 135°24'0 0.0
2018-Apr-17 12:59N 34°31' E 135°24'0 0.0
2018-Apr-17 12:29N 34°31' E 135°24'0 0.0
2018-Apr-17 11:59N 34°31' E 135°24'0 0.0
2018-Apr-17 11:29N 34°31' E 135°24'0 0.0
2018-Apr-17 10:59N 34°31' E 135°24'0 0.0
2018-Apr-17 10:29N 34°31' E 135°24'0 0.0
2018-Apr-17 09:59N 34°31' E 135°24'0 0.0
2018-Apr-17 09:29N 34°31' E 135°24'0 0.0
2018-Apr-17 08:59N 34°31' E 135°24'0 0.0
2018-Apr-17 08:29N 34°31' E 135°24'0 0.0
2018-Apr-17 07:59N 34°31' E 135°24'0 0.0
2018-Apr-17 07:29N 34°31' E 135°24'0 0.0
2018-Apr-17 06:59N 34°31' E 135°24'0 0.0
2018-Apr-17 06:29N 34°31' E 135°24'0 0.0
2018-Apr-17 05:59N 34°31' E 135°24'0 0.0
2018-Apr-17 05:29N 34°31' E 135°24'0 0.0
2018-Apr-17 04:59N 34°31' E 135°24'0 0.2
2018-Apr-17 04:30N 34°31' E 135°24'3 6.7
2018-Apr-17 04:01N 34°31' E 135°20'611.0
2018-Apr-17 03:30N 34°28' E 135°15'510.8
2018-Apr-17 03:00N 34°25' E 135°10'511.0
2018-Apr-17 02:30N 34°20' E 135°06'510.1
2018-Apr-17 02:00N 34°16' E 135°03'611.0
2018-Apr-17 01:30N 34°10' E 135°03'611.4
2018-Apr-17 01:00N 34°05' E 135°03'611.4
2018-Apr-17 00:30N 33°59' E 135°02'162 9.4
2018-Apr-16 07:19N 34°31' E 138°15'3510.9
2018-Apr-16 04:08N 34°36' E 138°57'311.6
2018-Apr-16 03:55N 34°38' E 138°59'511.5
2018-Apr-16 03:29N 34°42' E 139°02'2410.9
2018-Apr-16 01:15N 34°58' E 139°25'310.2
2018-Apr-16 00:57N 34°60' E 139°28'510.4
2018-Apr-16 00:29N 35°02' E 139°33'511.3
2018-Apr-16 00:00N 35°05' E 139°38'611.8
2018-Apr-15 23:30N 35°09' E 139°44'612.2
2018-Apr-15 23:00N 35°15' E 139°46'612.5
2018-Apr-15 22:30N 35°20' E 139°42'510.9
2018-Apr-15 22:00N 35°25' E 139°45'5 9.7
2018-Apr-15 21:30N 35°22' E 139°50'0 0.2
2018-Apr-15 21:00N 35°22' E 139°50'0 0.0
2018-Apr-15 20:30N 35°22' E 139°50'0 0.0
2018-Apr-15 19:57N 35°22' E 139°50'0 0.0
2018-Apr-15 19:29N 35°22' E 139°50'0 0.0
2018-Apr-15 18:57N 35°22' E 139°50'0 0.0
2018-Apr-15 18:27N 35°22' E 139°50'0 0.1
2018-Apr-15 18:00N 35°22' E 139°50'0 0.0
2018-Apr-15 17:29N 35°22' E 139°50'0 0.0
2018-Apr-15 16:59N 35°22' E 139°50'0 0.0
2018-Apr-15 16:30N 35°22' E 139°50'0 0.0
2018-Apr-15 15:59N 35°22' E 139°50'0 0.0
2018-Apr-15 15:30N 35°22' E 139°50'0 0.0
2018-Apr-15 14:59N 35°22' E 139°50'0 0.0
2018-Apr-15 14:30N 35°22' E 139°50'0 0.0
2018-Apr-15 14:00N 35°22' E 139°50'0 0.0
2018-Apr-15 13:29N 35°22' E 139°50'0 0.0
2018-Apr-15 13:00N 35°22' E 139°50'0 0.0
2018-Apr-15 12:30N 35°22' E 139°50'0 0.0
2018-Apr-15 11:59N 35°22' E 139°50'0 0.0
2018-Apr-15 11:29N 35°22' E 139°50'0 0.0
2018-Apr-15 11:00N 35°22' E 139°50'0 0.0
2018-Apr-15 10:29N 35°22' E 139°50'0 0.1
2018-Apr-15 10:00N 35°22' E 139°50'0 0.0
2018-Apr-15 09:30N 35°22' E 139°50'0 0.0
2018-Apr-15 09:00N 35°22' E 139°50'0 0.0
2018-Apr-15 08:30N 35°22' E 139°50'0 0.0
2018-Apr-15 08:00N 35°22' E 139°50'0 0.0
2018-Apr-15 07:26N 35°22' E 139°50'0 0.0
2018-Apr-15 07:00N 35°22' E 139°50'1 2.9
2018-Apr-15 06:30N 35°21' E 139°51'0 0.0
2018-Apr-14 00:30N 35°21' E 139°51'0 0.2
2018-Apr-14 00:00N 35°21' E 139°51'0 0.3
2018-Apr-13 23:30N 35°21' E 139°51'0 0.0
2018-Apr-13 22:12N 35°21' E 139°51'0 0.1
2018-Apr-13 21:18N 35°21' E 139°51'0 0.2
2018-Apr-13 21:00N 35°21' E 139°51'0 0.7
2018-Apr-13 20:30N 35°22' E 139°51'0 0.0
2018-Apr-13 20:00N 35°22' E 139°51'0 0.0
2018-Apr-13 19:30N 35°22' E 139°51'0 0.0
2018-Apr-13 19:00N 35°22' E 139°51'0 0.0
2018-Apr-13 18:30N 35°22' E 139°51'0 0.0
2018-Apr-13 18:00N 35°22' E 139°51'0 0.0
2018-Apr-13 17:30N 35°22' E 139°51'0 0.0
2018-Apr-13 17:00N 35°22' E 139°51'0 0.0
2018-Apr-13 16:30N 35°22' E 139°51'0 0.0
2018-Apr-13 16:00N 35°22' E 139°51'2 1.5
2018-Apr-13 15:00N 35°22' E 139°49'0 0.0
2018-Apr-13 14:28N 35°22' E 139°49'0 0.1
2018-Apr-13 13:58N 35°22' E 139°49'0 0.0
2018-Apr-13 13:25N 35°22' E 139°49'0 0.0
2018-Apr-13 12:58N 35°22' E 139°49'0 0.0
2018-Apr-13 12:28N 35°22' E 139°49'0 0.0
2018-Apr-13 11:58N 35°22' E 139°49'0 0.0
2018-Apr-13 11:28N 35°22' E 139°49'0 0.0
2018-Apr-13 10:58N 35°22' E 139°49'0 0.0
2018-Apr-13 10:28N 35°22' E 139°49'0 0.0
2018-Apr-13 09:58N 35°22' E 139°49'0 0.0
2018-Apr-13 09:28N 35°22' E 139°49'0 0.0
2018-Apr-13 08:58N 35°22' E 139°49'0 0.0
2018-Apr-13 08:25N 35°22' E 139°49'0 0.0
2018-Apr-13 07:55N 35°22' E 139°49'0 0.1
2018-Apr-13 07:28N 35°22' E 139°49'0 0.1
2018-Apr-13 06:58N 35°22' E 139°49'0 0.0
2018-Apr-13 06:28N 35°22' E 139°49'0 0.0
2018-Apr-13 05:58N 35°22' E 139°49'0 0.0
2018-Apr-13 05:25N 35°22' E 139°49'0 0.0
2018-Apr-13 04:58N 35°22' E 139°49'0 0.0
2018-Apr-13 04:28N 35°22' E 139°49'0 0.0
2018-Apr-13 03:58N 35°22' E 139°49'0 0.1
2018-Apr-13 03:28N 35°22' E 139°49'0 0.0
2018-Apr-13 02:55N 35°22' E 139°49'0 0.0
2018-Apr-13 02:28N 35°22' E 139°49'0 0.0
2018-Apr-13 01:58N 35°22' E 139°49'0 0.0
2018-Apr-13 01:25N 35°22' E 139°49'0 0.0
2018-Apr-13 00:58N 35°22' E 139°49'1 1.5
2018-Apr-13 00:30N 35°21' E 139°49'4 7.3
2018-Apr-13 00:00N 35°20' E 139°45'  
Track history (hours):
 
Tides and Currents Weather Stations Pressure Air Temp Water Temp Dewpoint Dewpoint Depression Visibility Wind Speed Wind Dir Waves Ship Positions

Sankoumaru 31

Last reported at 2018-Apr-22 23:35 UTC. Time now 2018-Apr-27 08:39 UTC.
Position N 41°25' E 141°35'.

Length 75 m; draft 5 m.

Type: Cargo ship. MMSI: 431501842.

Date/timePositionNaut miles runAvg speedWind from/ knotsBaromVisibWave heightAir tempDewpointWater temp
2018-Apr-22 23:35N 41°25' E 141°35'38411.4
2018-Apr-21 13:57N 35°05' E 140°20'612.4
2018-Apr-21 13:30N 35°02' E 140°14'612.2
2018-Apr-21 13:00N 34°59' E 140°08'612.0
2018-Apr-21 12:30N 34°55' E 140°02'911.9
2018-Apr-21 11:44N 34°50' E 139°53'312.3
2018-Apr-21 11:30N 34°48' E 139°50'712.4
2018-Apr-21 10:59N 34°46' E 139°43'612.1
2018-Apr-21 10:30N 34°44' E 139°36'612.1
2018-Apr-21 10:00N 34°41' E 139°30'712.7
2018-Apr-21 09:26N 34°39' E 139°22'613.0
2018-Apr-21 08:59N 34°37' E 139°15'613.2
2018-Apr-21 08:31N 34°35' E 139°07'713.3
2018-Apr-21 08:00N 34°33' E 138°60'713.7
2018-Apr-21 07:30N 34°32' E 138°52'612.9
2018-Apr-21 07:00N 34°30' E 138°44'612.7
2018-Apr-21 06:30N 34°29' E 138°37'612.6
2018-Apr-21 06:00N 34°27' E 138°29'612.0
2018-Apr-21 05:30N 34°25' E 138°22'612.2
2018-Apr-21 05:00N 34°24' E 138°15'711.7
2018-Apr-21 04:24N 34°22' E 138°07'6911.3
2018-Apr-20 22:19N 34°04' E 136°46'83 9.0
2018-Apr-20 13:08N 33°47' E 135°08'211.4
2018-Apr-20 12:57N 33°49' E 135°07'511.3
2018-Apr-20 12:30N 33°52' E 135°03'510.8
2018-Apr-20 12:00N 33°58' E 135°02'611.4
2018-Apr-20 11:30N 34°03' E 135°02'611.5
2018-Apr-20 11:00N 34°09' E 135°03'611.4
2018-Apr-20 10:30N 34°15' E 135°03'510.9
2018-Apr-20 10:00N 34°20' E 135°05'612.3
2018-Apr-20 09:30N 34°25' E 135°10'612.5
2018-Apr-20 09:00N 34°29' E 135°15'612.3
2018-Apr-20 08:30N 34°34' E 135°20'5 9.8
2018-Apr-20 08:00N 34°36' E 135°25'1 2.4
2018-Apr-20 07:30N 34°35' E 135°27'0 0.0
2018-Apr-20 06:58N 34°35' E 135°27'0 0.0
2018-Apr-20 06:28N 34°35' E 135°27'0 0.0
2018-Apr-20 05:58N 34°35' E 135°27'0 0.0
2018-Apr-20 05:28N 34°35' E 135°27'0 0.0
2018-Apr-20 04:52N 34°35' E 135°27'0 0.0
2018-Apr-20 04:28N 34°35' E 135°27'0 0.0
2018-Apr-20 03:58N 34°35' E 135°27'0 0.0
2018-Apr-20 03:28N 34°35' E 135°27'0 0.0
2018-Apr-20 02:58N 34°35' E 135°27'0 0.0
2018-Apr-20 02:28N 34°35' E 135°27'0 0.0
2018-Apr-20 01:52N 34°35' E 135°27'0 0.0
2018-Apr-20 01:28N 34°35' E 135°27'0 0.0
2018-Apr-20 00:55N 34°35' E 135°27'0 0.0
2018-Apr-20 00:25N 34°35' E 135°27'0 0.0
2018-Apr-19 23:58N 34°35' E 135°27'0 0.0
2018-Apr-19 23:28N 34°35' E 135°27'0 0.0
2018-Apr-19 22:58N 34°35' E 135°27'0 0.0
2018-Apr-19 22:28N 34°35' E 135°27'0 0.0
2018-Apr-19 22:00N 34°35' E 135°27'2 3.9
2018-Apr-19 21:31N 34°36' E 135°25'4 7.0
2018-Apr-19 21:00N 34°33' E 135°23'2 3.6
2018-Apr-19 20:28N 34°31' E 135°24'0 0.0
2018-Apr-19 19:58N 34°31' E 135°24'0 0.0
2018-Apr-19 19:28N 34°31' E 135°24'0 0.0
2018-Apr-19 18:55N 34°31' E 135°24'0 0.0
2018-Apr-19 18:25N 34°31' E 135°24'0 0.0
2018-Apr-19 17:58N 34°31' E 135°24'0 0.0
2018-Apr-19 17:28N 34°31' E 135°24'0 0.0
2018-Apr-19 16:58N 34°31' E 135°24'0 0.0
2018-Apr-19 16:28N 34°31' E 135°24'0 0.0
2018-Apr-19 15:58N 34°31' E 135°24'0 0.0
2018-Apr-19 15:28N 34°31' E 135°24'0 0.0
2018-Apr-19 14:55N 34°31' E 135°24'0 0.0
2018-Apr-19 14:28N 34°31' E 135°24'0 0.0
2018-Apr-19 13:58N 34°31' E 135°24'0 0.0
2018-Apr-19 13:28N 34°31' E 135°24'0 0.0
2018-Apr-19 12:58N 34°31' E 135°24'0 0.0
2018-Apr-19 12:28N 34°31' E 135°24'0 0.0
2018-Apr-19 11:58N 34°31' E 135°24'0 0.0
2018-Apr-19 11:28N 34°31' E 135°24'0 0.0
2018-Apr-19 10:58N 34°31' E 135°24'0 0.0
2018-Apr-19 10:25N 34°31' E 135°24'0 0.0
2018-Apr-19 09:58N 34°31' E 135°24'0 0.0
2018-Apr-19 09:28N 34°31' E 135°24'0 0.0
2018-Apr-19 08:58N 34°31' E 135°24'0 0.0
2018-Apr-19 08:28N 34°31' E 135°24'0 0.0
2018-Apr-19 07:52N 34°31' E 135°24'0 0.0
2018-Apr-19 07:28N 34°31' E 135°24'0 0.0
2018-Apr-19 06:58N 34°31' E 135°24'0 0.0
2018-Apr-19 06:25N 34°31' E 135°24'0 0.0
2018-Apr-19 05:58N 34°31' E 135°24'0 0.0
2018-Apr-19 05:28N 34°31' E 135°24'0 0.0
2018-Apr-19 04:58N 34°31' E 135°24'0 0.0
2018-Apr-19 04:19N 34°31' E 135°24'0 0.0
2018-Apr-19 03:58N 34°31' E 135°24'0 0.0
2018-Apr-19 03:28N 34°31' E 135°24'0 0.0
2018-Apr-19 02:58N 34°31' E 135°24'1 2.0
2018-Apr-19 02:30N 34°32' E 135°23'612.3
2018-Apr-19 02:00N 34°38' E 135°23'4 8.0
2018-Apr-19 01:30N 34°40' E 135°27'0 0.0
2018-Apr-19 00:57N 34°40' E 135°27'0 0.0
2018-Apr-19 00:30N 34°40' E 135°27'0 0.0
2018-Apr-18 23:57N 34°40' E 135°27'0 0.0
2018-Apr-18 23:30N 34°40' E 135°27'0 0.3
2018-Apr-18 23:00N 34°40' E 135°27'2 3.6
2018-Apr-18 22:30N 34°39' E 135°25'3 5.4
2018-Apr-18 21:58N 34°37' E 135°22'0 0.0
2018-Apr-18 21:28N 34°37' E 135°22'0 0.0
2018-Apr-18 20:58N 34°37' E 135°22'0 0.0
2018-Apr-18 20:28N 34°37' E 135°22'0 0.0
2018-Apr-18 19:58N 34°37' E 135°22'0 0.0
2018-Apr-18 19:28N 34°37' E 135°22'0 0.0
2018-Apr-18 18:58N 34°37' E 135°22'0 0.0
2018-Apr-18 18:28N 34°37' E 135°22'0 0.0
2018-Apr-18 17:58N 34°37' E 135°22'1 2.8
2018-Apr-18 17:30N 34°37' E 135°21'511.0
2018-Apr-18 17:00N 34°36' E 135°14'611.1
2018-Apr-18 16:30N 34°35' E 135°08'611.2
2018-Apr-18 16:00N 34°37' E 135°01'611.4
2018-Apr-18 15:30N 34°37' E 134°54'611.7
2018-Apr-18 15:00N 34°40' E 134°48'611.2
2018-Apr-18 14:30N 34°43' E 134°42'510.2
2018-Apr-18 14:00N 34°47' E 134°38'1 0.1
2018-Apr-18 06:03N 34°46' E 134°38'111.7
2018-Apr-18 05:57N 34°45' E 134°39'612.0
2018-Apr-18 05:29N 34°43' E 134°45'511.4
2018-Apr-18 05:00N 34°40' E 134°50'5 9.5
2018-Apr-18 04:30N 34°38' E 134°56'510.6
2018-Apr-18 04:00N 34°37' E 135°02'611.5
2018-Apr-18 03:30N 34°36' E 135°09'612.9
2018-Apr-18 03:00N 34°36' E 135°17'612.5
2018-Apr-18 02:30N 34°36' E 135°24'3 5.1
2018-Apr-18 02:00N 34°35' E 135°27'0 0.0
2018-Apr-18 01:29N 34°35' E 135°27'0 0.0
2018-Apr-18 00:59N 34°35' E 135°27'0 0.0
2018-Apr-18 00:29N 34°35' E 135°27'0 0.0
2018-Apr-17 23:59N 34°35' E 135°27'0 0.0
2018-Apr-17 23:29N 34°35' E 135°27'0 0.0
2018-Apr-17 22:59N 34°35' E 135°27'1 2.2
2018-Apr-17 22:30N 34°35' E 135°26'2 4.9
2018-Apr-17 22:00N 34°35' E 135°23'4 7.7
2018-Apr-17 21:30N 34°31' E 135°24'0 0.0
2018-Apr-17 20:59N 34°31' E 135°24'0 0.0
2018-Apr-17 20:29N 34°31' E 135°24'0 0.0
2018-Apr-17 19:59N 34°31' E 135°24'0 0.0
2018-Apr-17 19:29N 34°31' E 135°24'0 0.0
2018-Apr-17 18:59N 34°31' E 135°24'0 0.0
2018-Apr-17 18:26N 34°31' E 135°24'0 0.0
2018-Apr-17 17:56N 34°31' E 135°24'0 0.0
2018-Apr-17 17:29N 34°31' E 135°24'0 0.0
2018-Apr-17 16:59N 34°31' E 135°24'0 0.0
2018-Apr-17 16:29N 34°31' E 135°24'0 0.0
2018-Apr-17 15:56N 34°31' E 135°24'0 0.0
2018-Apr-17 15:26N 34°31' E 135°24'0 0.0
2018-Apr-17 14:59N 34°31' E 135°24'0 0.0
2018-Apr-17 14:29N 34°31' E 135°24'0 0.0
2018-Apr-17 13:59N 34°31' E 135°24'0 0.0
2018-Apr-17 13:29N 34°31' E 135°24'0 0.0
2018-Apr-17 12:59N 34°31' E 135°24'0 0.0
2018-Apr-17 12:29N 34°31' E 135°24'0 0.0
2018-Apr-17 11:59N 34°31' E 135°24'0 0.0
2018-Apr-17 11:29N 34°31' E 135°24'0 0.0
2018-Apr-17 10:59N 34°31' E 135°24'0 0.0
2018-Apr-17 10:29N 34°31' E 135°24'0 0.0
2018-Apr-17 09:59N 34°31' E 135°24'0 0.0
2018-Apr-17 09:29N 34°31' E 135°24'0 0.0
2018-Apr-17 08:59N 34°31' E 135°24'0 0.0
2018-Apr-17 08:29N 34°31' E 135°24'0 0.0
2018-Apr-17 07:59N 34°31' E 135°24'0 0.0
2018-Apr-17 07:29N 34°31' E 135°24'0 0.0
2018-Apr-17 06:59N 34°31' E 135°24'0 0.0
2018-Apr-17 06:29N 34°31' E 135°24'0 0.0
2018-Apr-17 05:59N 34°31' E 135°24'0 0.0
2018-Apr-17 05:29N 34°31' E 135°24'0 0.0
2018-Apr-17 04:59N 34°31' E 135°24'0 0.2
2018-Apr-17 04:30N 34°31' E 135°24'3 6.7
2018-Apr-17 04:01N 34°31' E 135°20'611.0
2018-Apr-17 03:30N 34°28' E 135°15'510.8
2018-Apr-17 03:00N 34°25' E 135°10'511.0
2018-Apr-17 02:30N 34°20' E 135°06'510.1
2018-Apr-17 02:00N 34°16' E 135°03'611.0
2018-Apr-17 01:30N 34°10' E 135°03'611.4
2018-Apr-17 01:00N 34°05' E 135°03'611.4
2018-Apr-17 00:30N 33°59' E 135°02'162 9.4
2018-Apr-16 07:19N 34°31' E 138°15'3510.9
2018-Apr-16 04:08N 34°36' E 138°57'311.6
2018-Apr-16 03:55N 34°38' E 138°59'511.5
2018-Apr-16 03:29N 34°42' E 139°02'2410.9
2018-Apr-16 01:15N 34°58' E 139°25'310.2
2018-Apr-16 00:57N 34°60' E 139°28'510.4
2018-Apr-16 00:29N 35°02' E 139°33'511.3
2018-Apr-16 00:00N 35°05' E 139°38'611.8
2018-Apr-15 23:30N 35°09' E 139°44'612.2
2018-Apr-15 23:00N 35°15' E 139°46'612.5
2018-Apr-15 22:30N 35°20' E 139°42'510.9
2018-Apr-15 22:00N 35°25' E 139°45'5 9.7
2018-Apr-15 21:30N 35°22' E 139°50'0 0.2
2018-Apr-15 21:00N 35°22' E 139°50'0 0.0
2018-Apr-15 20:30N 35°22' E 139°50'0 0.0
2018-Apr-15 19:57N 35°22' E 139°50'0 0.0
2018-Apr-15 19:29N 35°22' E 139°50'0 0.0
2018-Apr-15 18:57N 35°22' E 139°50'0 0.0
2018-Apr-15 18:27N 35°22' E 139°50'0 0.1
2018-Apr-15 18:00N 35°22' E 139°50'0 0.0
2018-Apr-15 17:29N 35°22' E 139°50'0 0.0
2018-Apr-15 16:59N 35°22' E 139°50'0 0.0
2018-Apr-15 16:30N 35°22' E 139°50'0 0.0
2018-Apr-15 15:59N 35°22' E 139°50'0 0.0
2018-Apr-15 15:30N 35°22' E 139°50'0 0.0
2018-Apr-15 14:59N 35°22' E 139°50'0 0.0
2018-Apr-15 14:30N 35°22' E 139°50'0 0.0
2018-Apr-15 14:00N 35°22' E 139°50'0 0.0
2018-Apr-15 13:29N 35°22' E 139°50'0 0.0
2018-Apr-15 13:00N 35°22' E 139°50'0 0.0
2018-Apr-15 12:30N 35°22' E 139°50'0 0.0
2018-Apr-15 11:59N 35°22' E 139°50'0 0.0
2018-Apr-15 11:29N 35°22' E 139°50'0 0.0
2018-Apr-15 11:00N 35°22' E 139°50'0 0.0
2018-Apr-15 10:29N 35°22' E 139°50'0 0.1
2018-Apr-15 10:00N 35°22' E 139°50'0 0.0
2018-Apr-15 09:30N 35°22' E 139°50'0 0.0
2018-Apr-15 09:00N 35°22' E 139°50'0 0.0
2018-Apr-15 08:30N 35°22' E 139°50'0 0.0
2018-Apr-15 08:00N 35°22' E 139°50'0 0.0
2018-Apr-15 07:26N 35°22' E 139°50'0 0.0
2018-Apr-15 07:00N 35°22' E 139°50'1 2.9
2018-Apr-15 06:30N 35°21' E 139°51'0 0.0
2018-Apr-14 00:30N 35°21' E 139°51'0 0.2
2018-Apr-14 00:00N 35°21' E 139°51'0 0.3
2018-Apr-13 23:30N 35°21' E 139°51'0 0.0
2018-Apr-13 22:12N 35°21' E 139°51'0 0.1
2018-Apr-13 21:18N 35°21' E 139°51'0 0.2
2018-Apr-13 21:00N 35°21' E 139°51'0 0.7
2018-Apr-13 20:30N 35°22' E 139°51'0 0.0
2018-Apr-13 20:00N 35°22' E 139°51'0 0.0
2018-Apr-13 19:30N 35°22' E 139°51'0 0.0
2018-Apr-13 19:00N 35°22' E 139°51'0 0.0
2018-Apr-13 18:30N 35°22' E 139°51'0 0.0
2018-Apr-13 18:00N 35°22' E 139°51'0 0.0
2018-Apr-13 17:30N 35°22' E 139°51'0 0.0
2018-Apr-13 17:00N 35°22' E 139°51'0 0.0
2018-Apr-13 16:30N 35°22' E 139°51'0 0.0
2018-Apr-13 16:00N 35°22' E 139°51'2 1.5
2018-Apr-13 15:00N 35°22' E 139°49'0 0.0
2018-Apr-13 14:28N 35°22' E 139°49'0 0.1
2018-Apr-13 13:58N 35°22' E 139°49'0 0.0
2018-Apr-13 13:25N 35°22' E 139°49'0 0.0
2018-Apr-13 12:58N 35°22' E 139°49'0 0.0
2018-Apr-13 12:28N 35°22' E 139°49'0 0.0
2018-Apr-13 11:58N 35°22' E 139°49'0 0.0
2018-Apr-13 11:28N 35°22' E 139°49'0 0.0
2018-Apr-13 10:58N 35°22' E 139°49'0 0.0
2018-Apr-13 10:28N 35°22' E 139°49'0 0.0
2018-Apr-13 09:58N 35°22' E 139°49'0 0.0
2018-Apr-13 09:28N 35°22' E 139°49'0 0.0
2018-Apr-13 08:58N 35°22' E 139°49'0 0.0
2018-Apr-13 08:25N 35°22' E 139°49'0 0.0
2018-Apr-13 07:55N 35°22' E 139°49'0 0.1
2018-Apr-13 07:28N 35°22' E 139°49'0 0.1
2018-Apr-13 06:58N 35°22' E 139°49'0 0.0
2018-Apr-13 06:28N 35°22' E 139°49'0 0.0
2018-Apr-13 05:58N 35°22' E 139°49'0 0.0
2018-Apr-13 05:25N 35°22' E 139°49'0 0.0
2018-Apr-13 04:58N 35°22' E 139°49'0 0.0
2018-Apr-13 04:28N 35°22' E 139°49'0 0.0
2018-Apr-13 03:58N 35°22' E 139°49'0 0.1
2018-Apr-13 03:28N 35°22' E 139°49'0 0.0
2018-Apr-13 02:55N 35°22' E 139°49'0 0.0
2018-Apr-13 02:28N 35°22' E 139°49'0 0.0
2018-Apr-13 01:58N 35°22' E 139°49'0 0.0
2018-Apr-13 01:25N 35°22' E 139°49'0 0.0
2018-Apr-13 00:58N 35°22' E 139°49'1 1.5
2018-Apr-13 00:30N 35°21' E 139°49'4 7.3
2018-Apr-13 00:00N 35°20' E 139°45'  

Dump ship's entire track history